Time;durP1;ratioP1;P1;durP2;ratioP2;P2;SDS_P1;SDS_P2;PMS_P1;PMS_P2;Temp;Humidity;BMP_temperature;BMP_pressure;BME280_temperature;BME280_humidity;BME280_pressure;Samples;Min_cycle;Max_cycle;Signal;HPM_P1;HPM_P2
2024/03/21 00:00:21;;;;;;;6.35;4.25;;;15.20;74.40;;;;;;5079455;28;20028;-65
2024/03/21 00:02:47;;;;;;;8.60;3.42;;;15.20;74.50;;;;;;5074636;28;20093;-65
2024/03/21 00:05:14;;;;;;;7.72;3.50;;;15.20;74.50;;;;;;5077688;28;20043;-65
2024/03/21 00:07:48;;;;;;;8.45;4.68;;;15.10;74.50;;;;;;5078753;28;20023;-65
2024/03/21 00:10:14;;;;;;;15.15;5.07;;;15.00;75.20;;;;;;5083273;28;20531;-65
2024/03/21 00:12:41;;;;;;;8.38;5.22;;;15.00;75.00;;;;;;5082401;28;20502;-65
2024/03/21 00:15:08;;;;;;;6.68;4.10;;;14.90;75.10;;;;;;5090230;28;20036;-65
2024/03/21 00:17:35;;;;;;;8.40;3.95;;;14.90;75.20;;;;;;5091471;28;20123;-66
2024/03/21 00:20:09;;;;;;;7.32;4.05;;;14.90;75.20;;;;;;5091931;28;20066;-65
2024/03/21 00:22:36;;;;;;;10.38;4.70;;;14.80;75.80;;;;;;5086890;28;20058;-65
2024/03/21 00:25:02;;;;;;;10.68;3.97;;;14.80;75.30;;;;;;5091379;28;20119;-65
2024/03/21 00:27:28;;;;;;;11.00;3.85;;;14.80;75.30;;;;;;5086737;28;20039;-65
2024/03/21 00:29:54;;;;;;;7.72;4.32;;;14.80;75.40;;;;;;5088891;28;20031;-65
2024/03/21 00:32:20;;;;;;;10.10;4.90;;;14.80;75.50;;;;;;5075042;28;20042;-65
2024/03/21 00:34:46;;;;;;;9.05;5.07;;;14.70;75.60;;;;;;5081416;28;20083;-65
2024/03/21 00:37:12;;;;;;;10.13;5.15;;;14.70;75.70;;;;;;5080921;28;20051;-65
2024/03/21 00:39:42;;;;;;;12.93;5.55;;;14.70;76.00;;;;;;5080919;28;20529;-65
2024/03/21 00:42:09;;;;;;;10.98;5.07;;;14.70;76.20;;;;;;5084150;28;20498;-65
2024/03/21 00:44:36;;;;;;;7.32;4.30;;;14.70;76.40;;;;;;5087232;28;20036;-65
2024/03/21 00:47:02;;;;;;;8.02;4.10;;;14.70;76.50;;;;;;5084304;28;20024;-65
2024/03/21 00:49:28;;;;;;;7.95;4.22;;;14.70;76.60;;;;;;5083400;28;20032;-65
2024/03/21 00:51:54;;;;;;;17.63;5.10;;;14.70;76.60;;;;;;5085608;28;20052;-65
2024/03/21 00:54:21;;;;;;;10.38;4.43;;;14.70;76.60;;;;;;5083234;28;20066;-63
2024/03/21 00:56:47;;;;;;;12.90;4.82;;;14.70;76.60;;;;;;5079859;28;20488;-64
2024/03/21 00:59:14;;;;;;;9.65;4.93;;;14.70;76.60;;;;;;5078845;28;20020;-64
2024/03/21 01:01:41;;;;;;;9.98;5.28;;;14.70;76.70;;;;;;5090790;28;20980;-63
2024/03/21 01:04:07;;;;;;;12.98;6.47;;;14.70;76.90;;;;;;5075021;28;20040;-63
2024/03/21 01:06:34;;;;;;;11.77;6.63;;;14.70;77.00;;;;;;5091326;28;20020;-63
2024/03/21 01:09:01;;;;;;;12.18;6.97;;;14.70;77.10;;;;;;5091680;28;20020;-63
2024/03/21 01:11:27;;;;;;;10.27;5.53;;;14.70;77.20;;;;;;5088963;28;20511;-63
2024/03/21 01:13:53;;;;;;;15.30;5.85;;;14.60;77.30;;;;;;5082966;28;20058;-64
2024/03/21 01:16:19;;;;;;;14.88;6.30;;;14.50;77.60;;;;;;5080651;28;20032;-63
2024/03/21 01:18:45;;;;;;;12.55;6.82;;;14.40;77.70;;;;;;5091512;28;20028;-63
2024/03/21 01:21:11;;;;;;;10.15;4.95;;;14.40;77.80;;;;;;5090604;28;20051;-64
2024/03/21 01:23:37;;;;;;;9.82;4.82;;;14.40;77.90;;;;;;5090551;28;20093;-63
2024/03/21 01:26:04;;;;;;;10.43;5.70;;;14.30;77.90;;;;;;5090368;28;20035;-65
2024/03/21 01:28:31;;;;;;;9.23;5.35;;;14.30;77.80;;;;;;5086457;28;20032;-65
2024/03/21 01:30:59;;;;;;;13.90;7.38;;;14.30;77.80;;;;;;5089339;28;20026;-65
2024/03/21 01:33:27;;;;;;;11.23;6.50;;;14.30;77.90;;;;;;5080771;28;20540;-65
2024/03/21 01:35:53;;;;;;;9.98;6.57;;;14.30;78.00;;;;;;5085346;28;20031;-65
2024/03/21 01:38:19;;;;;;;11.68;5.47;;;14.30;78.00;;;;;;5089815;28;20056;-65
2024/03/21 01:40:45;;;;;;;13.07;6.40;;;14.30;77.90;;;;;;5079310;28;20044;-65
2024/03/21 01:43:22;;;;;;;11.55;6.18;;;14.30;77.90;;;;;;5083900;28;20032;-64
2024/03/21 01:46:09;;;;;;;10.05;4.97;;;14.30;78.00;;;;;;5080636;28;20024;-64
2024/03/21 01:48:38;;;;;;;12.70;6.70;;;14.30;78.00;;;;;;5081479;28;20474;-65
2024/03/21 01:51:06;;;;;;;9.68;5.93;;;14.30;78.10;;;;;;5079693;28;20379;-65
2024/03/21 01:53:33;;;;;;;13.35;6.43;;;14.30;78.00;;;;;;5077184;28;20024;-66
2024/03/21 01:56:00;;;;;;;12.70;5.82;;;14.30;78.10;;;;;;5077822;28;20351;-65
2024/03/21 01:58:26;;;;;;;9.52;5.35;;;14.20;78.10;;;;;;5079873;28;20028;-65
2024/03/21 02:00:52;;;;;;;12.40;6.05;;;14.20;78.20;;;;;;5073223;28;20033;-65
2024/03/21 02:03:18;;;;;;;8.88;5.85;;;14.20;78.10;;;;;;5075672;28;20039;-65
2024/03/21 02:05:44;;;;;;;10.15;5.45;;;14.20;78.00;;;;;;5071999;28;20052;-65
2024/03/21 02:08:10;;;;;;;12.10;7.18;;;14.20;78.60;;;;;;5080967;28;20115;-65
2024/03/21 02:10:36;;;;;;;11.25;5.85;;;14.20;78.20;;;;;;5085320;28;20451;-65
2024/03/21 02:13:03;;;;;;;11.60;5.95;;;14.10;78.40;;;;;;5085600;28;20024;-65
2024/03/21 02:15:31;;;;;;;11.85;6.00;;;14.10;78.60;;;;;;5083629;28;20067;-65
2024/03/21 02:17:58;;;;;;;12.32;6.15;;;14.10;78.60;;;;;;5087106;28;20483;-64
2024/03/21 02:20:25;;;;;;;11.07;5.80;;;14.10;78.60;;;;;;5065174;28;20032;-63
2024/03/21 02:22:51;;;;;;;9.20;5.30;;;14.10;78.60;;;;;;5083056;28;20066;-63
2024/03/21 02:25:16;;;;;;;11.98;6.30;;;14.10;78.70;;;;;;5089543;28;20039;-63
2024/03/21 02:27:43;;;;;;;13.20;6.05;;;14.00;78.70;;;;;;5084607;28;20020;-63
2024/03/21 02:30:11;;;;;;;10.82;5.72;;;14.00;78.70;;;;;;5086421;28;20455;-63
2024/03/21 02:32:38;;;;;;;18.88;7.57;;;14.00;78.80;;;;;;5088900;28;20112;-66
2024/03/21 02:35:05;;;;;;;10.98;5.88;;;14.00;78.90;;;;;;5086440;28;20020;-66
2024/03/21 02:37:31;;;;;;;13.85;6.32;;;14.00;78.90;;;;;;5088995;28;20062;-66
2024/03/21 02:39:58;;;;;;;11.10;5.30;;;13.90;78.90;;;;;;5079574;28;20423;-66
2024/03/21 02:42:24;;;;;;;8.80;4.75;;;13.90;79.00;;;;;;5078078;28;20392;-66
2024/03/21 02:44:51;;;;;;;13.82;6.70;;;13.90;79.10;;;;;;5082305;28;20028;-66
2024/03/21 02:47:19;;;;;;;11.10;5.25;;;13.90;79.30;;;;;;5080825;28;20028;-66
2024/03/21 02:49:45;;;;;;;17.27;6.75;;;13.80;79.40;;;;;;5087871;28;20390;-66
2024/03/21 02:52:12;;;;;;;13.50;6.18;;;13.80;79.50;;;;;;5085856;28;20036;-64
2024/03/21 02:54:37;;;;;;;10.13;5.22;;;13.80;79.70;;;;;;5088977;28;20032;-63
2024/03/21 02:57:05;;;;;;;10.35;5.50;;;13.80;79.90;;;;;;5081263;28;20039;-63
2024/03/21 02:59:34;;;;;;;11.10;6.28;;;13.80;80.50;;;;;;5078947;28;20082;-63
2024/03/21 03:02:00;;;;;;;9.80;5.18;;;13.70;79.90;;;;;;5089279;28;20028;-64
2024/03/21 03:04:27;;;;;;;9.05;5.72;;;13.70;80.00;;;;;;5081730;28;20035;-63
2024/03/21 03:06:52;;;;;;;11.60;5.70;;;13.70;80.00;;;;;;5088526;28;20028;-65
2024/03/21 03:09:18;;;;;;;12.07;5.45;;;13.70;80.00;;;;;;5089655;28;20369;-65
2024/03/21 03:11:44;;;;;;;9.00;5.10;;;13.70;80.00;;;;;;5089508;28;20028;-65
2024/03/21 03:14:10;;;;;;;10.40;5.97;;;13.70;80.10;;;;;;5084336;28;20123;-65
2024/03/21 03:16:36;;;;;;;13.27;5.22;;;13.70;80.10;;;;;;5071041;28;20418;-65
2024/03/21 03:19:03;;;;;;;11.48;6.63;;;13.70;80.20;;;;;;5089118;28;20029;-65
2024/03/21 03:21:29;;;;;;;11.23;5.40;;;13.60;80.30;;;;;;5085726;28;20521;-66
2024/03/21 03:23:55;;;;;;;10.63;4.85;;;13.60;80.30;;;;;;5085594;28;20097;-65
2024/03/21 03:26:21;;;;;;;12.38;5.75;;;13.60;80.30;;;;;;5082980;28;20024;-63
2024/03/21 03:28:47;;;;;;;12.32;5.60;;;13.60;80.20;;;;;;5083539;28;20028;-63
2024/03/21 03:31:13;;;;;;;10.95;5.38;;;13.60;80.30;;;;;;5078429;28;20027;-65
2024/03/21 03:36:25;;;;;;;8.80;5.28;;;13.60;80.30;;;;;;5086557;28;20043;-65
2024/03/21 03:38:51;;;;;;;11.30;5.57;;;13.60;80.30;;;;;;5072450;28;20032;-64
2024/03/21 03:41:18;;;;;;;12.10;6.43;;;13.50;80.30;;;;;;5082348;28;20073;-63
2024/03/21 03:43:43;;;;;;;10.02;5.38;;;13.50;80.40;;;;;;5086151;28;20032;-63
2024/03/21 03:46:09;;;;;;;10.85;6.18;;;13.50;80.50;;;;;;5086451;28;20501;-63
2024/03/21 03:48:35;;;;;;;10.15;5.25;;;13.40;80.60;;;;;;5082619;28;20150;-63
2024/03/21 03:51:01;;;;;;;10.60;5.95;;;13.40;80.80;;;;;;5084716;28;20446;-65
2024/03/21 03:53:27;;;;;;;16.70;5.97;;;13.40;80.80;;;;;;5075633;28;20407;-65
2024/03/21 03:55:53;;;;;;;10.68;5.55;;;13.30;81.00;;;;;;5087773;28;20154;-65
2024/03/21 03:58:20;;;;;;;12.18;6.22;;;13.30;81.10;;;;;;5079331;28;20036;-65
2024/03/21 04:00:54;;;;;;;13.40;6.22;;;13.30;81.40;;;;;;5085589;28;20111;-65
2024/03/21 04:03:20;;;;;;;12.07;5.72;;;13.20;81.50;;;;;;5085108;28;20479;-65
2024/03/21 04:05:58;;;;;;;9.23;4.97;;;13.20;81.70;;;;;;5080081;28;20031;-65
2024/03/21 04:08:24;;;;;;;12.98;5.70;;;13.20;81.90;;;;;;5086924;28;20048;-65
2024/03/21 04:10:50;;;;;;;10.88;5.18;;;13.10;82.10;;;;;;5091841;28;20027;-65
2024/03/21 04:13:16;;;;;;;11.23;5.57;;;13.10;82.10;;;;;;5078866;28;20387;-65
2024/03/21 04:15:43;;;;;;;9.68;6.25;;;13.20;82.10;;;;;;5081065;28;20020;-65
2024/03/21 04:18:09;;;;;;;11.45;4.90;;;13.20;82.10;;;;;;5081204;28;20025;-65
2024/03/21 04:20:35;;;;;;;9.63;5.68;;;13.10;82.10;;;;;;5074341;28;20029;-63
2024/03/21 04:23:01;;;;;;;8.98;5.03;;;13.10;82.10;;;;;;5076320;28;20427;-63
2024/03/21 04:25:28;;;;;;;12.05;5.82;;;13.20;82.20;;;;;;5083437;28;20047;-65
2024/03/21 04:27:54;;;;;;;9.77;5.25;;;13.20;82.20;;;;;;5078574;28;20020;-65
2024/03/21 04:30:20;;;;;;;8.98;4.82;;;13.20;82.10;;;;;;5078922;28;20025;-65
2024/03/21 04:32:46;;;;;;;8.57;3.78;;;13.20;82.00;;;;;;5074181;28;20061;-65
2024/03/21 04:35:12;;;;;;;8.07;4.03;;;13.20;81.80;;;;;;5081149;28;20113;-65
2024/03/21 04:37:38;;;;;;;7.85;4.45;;;13.20;81.80;;;;;;5070585;28;20039;-65
2024/03/21 04:40:05;;;;;;;7.30;3.72;;;13.20;81.70;;;;;;5082875;28;20108;-65
2024/03/21 04:42:31;;;;;;;5.35;3.35;;;13.10;81.70;;;;;;5081306;28;20564;-65
2024/03/21 04:44:57;;;;;;;6.90;2.92;;;13.10;81.60;;;;;;5083918;28;20065;-65
2024/03/21 04:47:23;;;;;;;4.20;2.03;;;13.10;81.30;;;;;;5083385;28;20028;-65
2024/03/21 04:49:54;;;;;;;2.70;1.40;;;13.00;81.20;;;;;;5083468;28;20085;-65
2024/03/21 04:52:20;;;;;;;2.65;1.30;;;12.90;80.90;;;;;;5078426;28;20059;-65
2024/03/21 04:54:52;;;;;;;2.35;1.35;;;12.90;80.90;;;;;;5088139;28;20537;-65
2024/03/21 04:57:19;;;;;;;2.90;1.25;;;12.80;80.80;;;;;;5081743;28;20027;-65
2024/03/21 04:59:45;;;;;;;1.90;1.13;;;12.80;80.80;;;;;;5077770;28;20028;-65
2024/03/21 05:02:11;;;;;;;1.80;1.08;;;12.80;80.70;;;;;;5079949;28;20028;-65
2024/03/21 05:04:37;;;;;;;2.58;1.08;;;12.70;80.60;;;;;;5091743;28;20043;-65
2024/03/21 05:07:03;;;;;;;1.50;1.00;;;12.70;80.70;;;;;;5089370;28;20417;-65
2024/03/21 05:09:29;;;;;;;2.00;1.20;;;12.60;80.60;;;;;;5089328;28;20024;-65
2024/03/21 05:11:55;;;;;;;1.70;1.00;;;12.60;80.50;;;;;;5077892;28;20550;-64
2024/03/21 05:14:21;;;;;;;1.67;1.00;;;12.60;80.50;;;;;;5083044;28;20064;-63
2024/03/21 05:16:47;;;;;;;1.33;1.23;;;12.50;80.30;;;;;;5089204;28;20032;-63
2024/03/21 05:19:13;;;;;;;1.35;1.08;;;12.40;80.20;;;;;;5088114;28;20338;-63
2024/03/21 05:21:40;;;;;;;3.13;0.90;;;12.40;80.10;;;;;;5089801;28;20141;-63
2024/03/21 05:24:06;;;;;;;1.30;0.90;;;12.30;80.00;;;;;;5082460;28;20028;-63
2024/03/21 05:26:32;;;;;;;1.17;0.70;;;12.20;80.00;;;;;;5082035;28;20433;-63
2024/03/21 05:28:58;;;;;;;0.85;0.73;;;12.20;80.10;;;;;;5089435;28;20028;-63
2024/03/21 05:31:25;;;;;;;1.90;1.02;;;12.20;80.10;;;;;;5082696;28;20077;-65
2024/03/21 05:33:52;;;;;;;1.80;0.80;;;12.20;79.80;;;;;;5082295;28;20417;-65
2024/03/21 05:36:18;;;;;;;1.27;0.90;;;12.20;79.70;;;;;;5080339;28;20029;-65
2024/03/21 05:38:45;;;;;;;1.55;1.08;;;12.20;79.70;;;;;;5081714;28;20028;-63
2024/03/21 05:41:12;;;;;;;1.10;1.00;;;12.20;79.80;;;;;;5073738;28;20024;-63
2024/03/21 05:43:38;;;;;;;1.45;0.90;;;12.20;79.70;;;;;;5085876;28;20024;-63
2024/03/21 05:46:04;;;;;;;2.35;0.90;;;12.20;79.70;;;;;;5079442;28;20058;-63
2024/03/21 05:48:31;;;;;;;3.22;1.80;;;12.30;79.80;;;;;;5079580;28;20016;-63
2024/03/21 05:50:58;;;;;;;1.55;1.10;;;12.30;79.60;;;;;;5078014;28;20067;-63
2024/03/21 05:53:24;;;;;;;2.28;1.77;;;12.20;79.50;;;;;;5088137;28;20020;-64
2024/03/21 05:56:01;;;;;;;2.10;1.75;;;12.30;79.50;;;;;;5079640;28;20432;-64
2024/03/21 05:58:27;;;;;;;2.03;1.35;;;12.30;79.20;;;;;;5079543;28;20458;-64
2024/03/21 06:00:55;;;;;;;2.90;1.15;;;12.30;79.10;;;;;;5091352;28;20024;-64
2024/03/21 06:03:21;;;;;;;2.03;1.70;;;12.40;79.00;;;;;;5086277;28;20111;-64
2024/03/21 06:05:47;;;;;;;3.25;1.55;;;12.30;78.70;;;;;;5082149;28;20119;-65
2024/03/21 06:08:12;;;;;;;2.28;1.10;;;12.30;78.70;;;;;;5081266;28;20482;-64
2024/03/21 06:10:38;;;;;;;2.60;1.40;;;12.20;78.40;;;;;;5081013;28;20059;-63
2024/03/21 06:13:04;;;;;;;3.83;1.40;;;12.20;78.20;;;;;;5087061;28;20097;-66
2024/03/21 06:15:30;;;;;;;1.67;1.08;;;12.20;77.80;;;;;;5075702;28;20060;-63
2024/03/21 06:17:56;;;;;;;2.88;0.95;;;12.10;77.70;;;;;;5086893;28;20066;-64
2024/03/21 06:20:22;;;;;;;2.50;1.02;;;12.10;77.60;;;;;;5084471;28;20056;-64
2024/03/21 06:22:47;;;;;;;1.33;0.85;;;12.00;77.60;;;;;;5084730;28;20048;-64
2024/03/21 06:25:13;;;;;;;1.52;0.93;;;12.00;77.60;;;;;;5087489;28;20040;-63
2024/03/21 06:27:39;;;;;;;2.35;1.02;;;12.00;77.70;;;;;;5077641;28;20024;-63
2024/03/21 06:30:05;;;;;;;0.52;0.52;;;12.00;77.60;;;;;;5062397;28;20028;-63
2024/03/21 06:32:31;;;;;;;0.60;0.60;;;11.90;77.40;;;;;;5081964;28;20058;-64
2024/03/21 06:34:57;;;;;;;0.68;0.57;;;11.90;77.10;;;;;;5082657;28;20433;-64
2024/03/21 06:37:22;;;;;;;1.02;0.60;;;11.90;77.30;;;;;;5084601;28;20028;-64
2024/03/21 06:39:48;;;;;;;0.45;0.45;;;11.80;77.20;;;;;;5081753;28;20479;-63
2024/03/21 06:42:13;;;;;;;1.17;1.08;;;11.80;77.30;;;;;;5079190;28;20298;-64
2024/03/21 06:44:40;;;;;;;4.00;0.95;;;11.80;77.30;;;;;;5085861;28;20057;-63
2024/03/21 06:47:06;;;;;;;1.42;0.90;;;11.80;77.10;;;;;;5086170;28;20387;-63
2024/03/21 06:49:31;;;;;;;1.95;0.70;;;11.80;77.10;;;;;;5086154;28;20028;-63
2024/03/21 06:51:57;;;;;;;2.83;0.88;;;11.80;77.00;;;;;;5075010;28;20032;-65
2024/03/21 06:54:23;;;;;;;0.93;0.40;;;11.80;77.00;;;;;;5087686;28;20052;-64
2024/03/21 06:56:49;;;;;;;1.75;0.52;;;11.70;76.90;;;;;;5077315;28;20036;-65
2024/03/21 06:59:14;;;;;;;1.25;0.60;;;11.70;76.90;;;;;;5067457;28;20396;-65
2024/03/21 07:01:40;;;;;;;0.68;0.68;;;11.80;76.90;;;;;;5082802;28;20075;-64
2024/03/21 07:04:08;;;;;;;0.63;0.63;;;11.80;76.80;;;;;;5078246;28;20568;-64
2024/03/21 07:06:34;;;;;;;1.15;0.88;;;11.80;76.80;;;;;;5083630;28;20379;-64
2024/03/21 07:09:00;;;;;;;2.05;0.60;;;11.90;76.70;;;;;;5083631;28;20089;-64
2024/03/21 07:11:26;;;;;;;1.00;0.50;;;11.90;76.70;;;;;;5085526;28;20106;-64
2024/03/21 07:13:51;;;;;;;0.88;0.68;;;11.90;76.70;;;;;;5074060;28;20475;-63
2024/03/21 07:16:17;;;;;;;0.30;0.30;;;12.00;76.50;;;;;;5083369;28;20020;-63
2024/03/21 07:18:43;;;;;;;0.65;0.43;;;12.00;76.40;;;;;;5077801;28;20475;-64
2024/03/21 07:21:09;;;;;;;1.13;0.30;;;12.10;76.30;;;;;;5082348;28;20110;-65
2024/03/21 07:23:35;;;;;;;6.22;0.90;;;12.10;76.10;;;;;;5085133;28;20099;-64
2024/03/21 07:26:00;;;;;;;0.45;0.45;;;12.10;75.60;;;;;;5083001;28;20459;-65
2024/03/21 07:28:26;;;;;;;4.22;0.85;;;12.10;75.50;;;;;;5076097;28;20028;-64
2024/03/21 07:30:56;;;;;;;0.85;0.63;;;12.00;75.60;;;;;;5078846;28;20019;-65
2024/03/21 07:33:22;;;;;;;0.65;0.63;;;12.00;75.50;;;;;;5075642;28;20032;-64
2024/03/21 07:35:57;;;;;;;0.38;0.38;;;12.00;75.50;;;;;;5079725;28;20032;-64
2024/03/21 07:38:23;;;;;;;0.60;0.60;;;12.00;75.40;;;;;;5078612;28;20036;-64
2024/03/21 07:40:56;;;;;;;1.05;0.68;;;11.90;75.60;;;;;;5082554;28;20024;-65
2024/03/21 07:43:22;;;;;;;0.70;0.40;;;12.00;75.60;;;;;;5082153;28;20103;-64
2024/03/21 07:45:48;;;;;;;2.50;1.02;;;12.00;75.30;;;;;;5077711;28;20370;-64
2024/03/21 07:48:14;;;;;;;0.40;0.40;;;12.10;75.30;;;;;;5085445;28;20028;-64
2024/03/21 07:50:39;;;;;;;4.03;0.63;;;12.10;75.00;;;;;;5083468;28;20028;-65
2024/03/21 07:53:05;;;;;;;1.73;0.40;;;12.10;75.00;;;;;;5081323;28;20028;-65
2024/03/21 07:55:31;;;;;;;1.08;0.57;;;12.10;75.00;;;;;;5074442;28;20495;-64
2024/03/21 07:57:58;;;;;;;1.52;0.40;;;12.10;74.90;;;;;;5083324;28;20028;-64
2024/03/21 08:00:24;;;;;;;2.97;0.30;;;12.20;74.90;;;;;;5082797;28;20060;-65
2024/03/21 08:02:50;;;;;;;0.85;0.30;;;12.30;74.90;;;;;;5077459;28;20024;-66
2024/03/21 08:05:16;;;;;;;1.08;0.50;;;12.40;74.80;;;;;;5072896;28;20044;-66
2024/03/21 08:07:41;;;;;;;0.20;0.20;;;12.50;74.70;;;;;;5081195;28;20020;-66
2024/03/21 08:10:07;;;;;;;0.85;0.47;;;12.60;74.60;;;;;;5073373;28;20036;-66
2024/03/21 08:12:33;;;;;;;0.30;0.30;;;12.60;74.40;;;;;;5074681;28;20055;-66
2024/03/21 08:14:58;;;;;;;0.85;0.30;;;12.70;74.30;;;;;;5057126;28;20395;-65
2024/03/21 08:17:24;;;;;;;0.50;0.50;;;12.70;74.00;;;;;;5072354;28;20043;-66
2024/03/21 08:19:53;;;;;;;0.57;0.50;;;12.70;74.00;;;;;;5075853;28;20025;-65
2024/03/21 08:22:19;;;;;;;0.65;0.40;;;12.80;73.90;;;;;;5077041;28;20513;-66
2024/03/21 08:24:45;;;;;;;2.28;0.20;;;12.90;73.70;;;;;;5062306;28;20041;-66
2024/03/21 08:27:10;;;;;;;2.97;0.30;;;13.00;73.50;;;;;;5079749;28;20040;-66
2024/03/21 08:29:36;;;;;;;3.53;0.55;;;13.00;73.40;;;;;;5074379;28;20442;-65
2024/03/21 08:32:07;;;;;;;0.77;0.45;;;13.00;73.20;;;;;;5077055;28;20024;-64
2024/03/21 08:34:33;;;;;;;1.00;0.52;;;12.90;73.10;;;;;;5079752;28;20060;-64
2024/03/21 08:36:58;;;;;;;1.77;0.90;;;12.80;73.40;;;;;;5069783;28;20435;-66
2024/03/21 08:39:24;;;;;;;2.15;0.60;;;12.80;73.50;;;;;;5068981;28;20042;-66
2024/03/21 08:41:50;;;;;;;1.73;0.30;;;12.70;73.50;;;;;;5081307;28;20024;-67
2024/03/21 08:44:16;;;;;;;0.85;0.52;;;12.80;73.50;;;;;;5085530;28;20036;-65
2024/03/21 08:46:41;;;;;;;0.57;0.30;;;12.80;73.40;;;;;;5088880;28;20552;-66
2024/03/21 08:49:07;;;;;;;1.73;0.40;;;12.90;73.40;;;;;;5082360;28;20020;-66
2024/03/21 08:51:32;;;;;;;2.75;0.68;;;12.90;73.10;;;;;;5083550;28;20029;-65
2024/03/21 08:53:58;;;;;;;1.23;0.60;;;12.80;72.70;;;;;;5078132;28;20024;-65
2024/03/21 08:56:24;;;;;;;0.50;0.50;;;12.80;72.90;;;;;;5073978;28;20035;-66
2024/03/21 08:58:49;;;;;;;0.30;0.30;;;12.70;72.60;;;;;;5084438;28;20031;-67
2024/03/21 09:01:15;;;;;;;1.45;0.80;;;12.70;72.70;;;;;;5074133;28;20032;-69
2024/03/21 09:03:40;;;;;;;1.90;0.50;;;12.70;72.90;;;;;;5074462;28;20487;-68
2024/03/21 09:06:06;;;;;;;1.20;0.30;;;12.80;72.50;;;;;;5067274;28;20044;-68
2024/03/21 09:08:34;;;;;;;0.73;0.50;;;12.80;72.50;;;;;;5074672;28;20024;-68
2024/03/21 09:11:03;;;;;;;0.40;0.30;;;12.90;72.40;;;;;;5077177;28;20374;-68
2024/03/21 09:13:30;;;;;;;1.10;0.65;;;13.00;72.30;;;;;;5080222;28;20028;-69
2024/03/21 09:15:56;;;;;;;1.65;0.90;;;13.20;72.10;;;;;;5074090;28;20032;-69
2024/03/21 09:18:22;;;;;;;0.90;0.80;;;13.30;71.80;;;;;;5087021;28;20101;-70
2024/03/21 09:20:50;;;;;;;0.40;0.40;;;13.40;71.40;;;;;;5068610;28;20576;-70
2024/03/21 09:23:16;;;;;;;0.40;0.28;;;13.40;71.30;;;;;;5082366;28;20036;-72
2024/03/21 09:25:41;;;;;;;0.85;0.30;;;13.50;71.40;;;;;;5082272;28;20445;-65
2024/03/21 09:28:07;;;;;;;1.15;1.02;;;13.60;71.30;;;;;;5075329;28;20067;-65
2024/03/21 09:30:33;;;;;;;1.27;0.60;;;13.50;70.50;;;;;;5080727;28;20028;-65
2024/03/21 09:32:58;;;;;;;5.53;0.82;;;13.30;70.50;;;;;;5084286;28;20035;-65
2024/03/21 09:35:24;;;;;;;1.73;0.80;;;13.30;70.90;;;;;;5088010;28;20506;-65
2024/03/21 09:37:49;;;;;;;2.35;0.63;;;13.30;70.90;;;;;;5081965;28;20028;-65
2024/03/21 09:40:17;;;;;;;0.75;0.55;;;13.40;70.60;;;;;;5077651;28;20060;-65
2024/03/21 09:42:43;;;;;;;0.70;0.47;;;13.50;70.90;;;;;;5084353;28;20021;-67
2024/03/21 09:45:13;;;;;;;0.60;0.43;;;13.80;70.30;;;;;;5080339;28;20028;-65
2024/03/21 09:47:42;;;;;;;1.00;0.40;;;13.90;69.50;;;;;;5075922;28;20099;-66
2024/03/21 09:50:12;;;;;;;1.58;0.82;;;14.10;69.30;;;;;;5081304;28;20427;-66
2024/03/21 09:52:39;;;;;;;4.32;0.77;;;14.30;69.20;;;;;;5083635;28;20028;-66
2024/03/21 09:55:14;;;;;;;1.33;1.05;;;14.50;68.70;;;;;;5076121;28;20032;-66
2024/03/21 09:57:41;;;;;;;0.98;0.55;;;14.60;68.00;;;;;;5084235;28;20036;-66
2024/03/21 10:00:12;;;;;;;3.05;0.68;;;14.50;68.20;;;;;;5089335;28;20126;-66
2024/03/21 10:02:38;;;;;;;0.80;0.60;;;14.50;68.50;;;;;;5073793;28;20140;-66
2024/03/21 10:05:06;;;;;;;4.22;0.77;;;14.60;68.40;;;;;;5087781;28;20069;-67
2024/03/21 10:07:36;;;;;;;0.90;0.60;;;14.60;67.80;;;;;;5088836;28;20028;-66
2024/03/21 10:10:02;;;;;;;2.47;0.60;;;14.70;67.90;;;;;;5086226;28;20408;-70
2024/03/21 10:12:30;;;;;;;2.63;0.43;;;14.80;67.90;;;;;;5085341;28;20356;-68
2024/03/21 10:14:56;;;;;;;3.05;0.57;;;14.90;67.60;;;;;;5087272;28;20036;-69
2024/03/21 10:17:26;;;;;;;1.15;1.00;;;14.90;67.50;;;;;;5079870;28;20541;-64
2024/03/21 10:19:53;;;;;;;3.50;1.02;;;15.00;67.30;;;;;;5083149;28;20119;-65
2024/03/21 10:22:23;;;;;;;0.85;0.63;;;14.90;66.90;;;;;;5073998;28;20051;-64
2024/03/21 10:24:56;;;;;;;1.27;0.82;;;14.80;66.90;;;;;;5082600;28;20051;-64
2024/03/21 10:27:23;;;;;;;1.58;0.63;;;14.60;66.50;;;;;;5077748;28;20019;-64
2024/03/21 10:29:55;;;;;;;1.40;0.77;;;14.40;66.80;;;;;;5080999;28;20028;-64
2024/03/21 10:32:22;;;;;;;1.80;0.93;;;14.40;67.40;;;;;;5081313;28;20025;-65
2024/03/21 10:34:49;;;;;;;1.83;1.00;;;14.70;67.20;;;;;;5079181;28;20032;-63
2024/03/21 10:37:22;;;;;;;1.67;1.00;;;14.90;66.30;;;;;;5086340;28;20061;-65
2024/03/21 10:39:50;;;;;;;1.35;0.75;;;14.90;66.00;;;;;;5077200;28;20028;-65
2024/03/21 10:42:30;;;;;;;0.60;0.60;;;14.70;65.80;;;;;;5083748;28;20099;-62
2024/03/21 10:45:00;;;;;;;2.22;1.10;;;14.80;66.20;;;;;;5080171;28;20024;-65
2024/03/21 10:47:29;;;;;;;1.88;0.90;;;14.80;65.80;;;;;;5084849;28;20352;-62
2024/03/21 10:49:55;;;;;;;2.65;0.95;;;14.80;65.90;;;;;;5088453;28;20023;-62
2024/03/21 10:52:21;;;;;;;1.88;0.70;;;14.90;65.60;;;;;;5075331;28;20046;-62
2024/03/21 10:54:51;;;;;;;0.90;0.70;;;15.10;65.80;;;;;;5074719;28;20056;-65
2024/03/21 10:57:25;;;;;;;1.33;0.82;;;15.30;65.30;;;;;;5077874;28;20513;-62
2024/03/21 11:00:14;;;;;;;0.80;0.60;;;15.40;65.10;;;;;;5071207;28;20048;-65
2024/03/21 11:02:44;;;;;;;1.10;0.80;;;15.40;64.80;;;;;;5074407;28;20038;-65
2024/03/21 11:05:14;;;;;;;1.10;0.75;;;15.40;65.10;;;;;;5070748;28;20344;-65
2024/03/21 11:07:40;;;;;;;2.17;1.02;;;15.30;65.00;;;;;;5084137;28;20028;-69
2024/03/21 11:10:15;;;;;;;1.85;0.75;;;15.30;65.30;;;;;;5088097;28;20039;-69
2024/03/21 11:12:41;;;;;;;3.42;1.10;;;15.40;65.40;;;;;;5084467;28;20129;-69
2024/03/21 11:15:08;;;;;;;0.85;0.85;;;15.60;64.70;;;;;;5088279;28;20056;-69
2024/03/21 11:17:34;;;;;;;2.75;1.00;;;15.70;64.60;;;;;;5089068;28;20036;-66
2024/03/21 11:20:05;;;;;;;3.83;1.13;;;15.90;64.60;;;;;;5081811;28;20017;-66
2024/03/21 11:22:31;;;;;;;3.60;0.63;;;16.10;63.60;;;;;;5078737;28;20410;-67
2024/03/21 11:24:59;;;;;;;1.02;0.75;;;16.20;63.60;;;;;;5080300;28;20040;-67
2024/03/21 11:27:25;;;;;;;1.75;0.82;;;16.30;63.10;;;;;;5083944;28;20078;-67
2024/03/21 11:29:50;;;;;;;0.75;0.75;;;16.30;63.20;;;;;;5085657;28;20424;-68
2024/03/21 11:32:26;;;;;;;0.45;0.45;;;16.50;63.20;;;;;;5081804;28;20070;-63
2024/03/21 11:34:52;;;;;;;1.10;0.80;;;16.80;62.80;;;;;;5082005;28;20475;-63
2024/03/21 11:37:18;;;;;;;0.63;0.52;;;17.00;62.30;;;;;;5082065;28;20034;-63
2024/03/21 11:39:45;;;;;;;0.90;0.70;;;17.20;61.70;;;;;;5083224;28;20028;-63
2024/03/21 11:42:12;;;;;;;2.10;0.60;;;17.20;61.20;;;;;;5085141;28;20024;-63
2024/03/21 11:44:40;;;;;;;3.42;1.58;;;17.40;61.40;;;;;;5087673;28;20036;-63
2024/03/21 11:47:13;;;;;;;3.22;1.25;;;17.60;61.30;;;;;;5081727;28;20028;-66
2024/03/21 11:49:49;;;;;;;2.92;0.80;;;17.70;60.30;;;;;;5082967;28;20028;-63
2024/03/21 11:52:16;;;;;;;0.93;0.63;;;17.80;60.40;;;;;;5066500;28;20475;-63
2024/03/21 11:54:45;;;;;;;0.93;0.52;;;18.00;59.90;;;;;;5078042;28;20028;-64
2024/03/21 11:57:15;;;;;;;0.77;0.50;;;18.00;59.80;;;;;;5077401;28;20107;-64
2024/03/21 11:59:44;;;;;;;0.93;0.70;;;17.90;59.50;;;;;;5077826;28;20024;-63
2024/03/21 12:02:16;;;;;;;2.35;0.75;;;17.60;59.40;;;;;;5070737;28;20036;-64
2024/03/21 12:04:41;;;;;;;1.00;0.90;;;17.40;59.50;;;;;;5065774;28;20078;-63
2024/03/21 12:07:14;;;;;;;3.97;0.43;;;17.10;60.30;;;;;;5075156;28;20652;-64
2024/03/21 12:09:40;;;;;;;3.65;0.82;;;17.30;60.90;;;;;;5074392;28;20322;-63
2024/03/21 12:12:11;;;;;;;3.15;0.52;;;17.40;60.60;;;;;;5084617;28;20024;-64
2024/03/21 12:14:37;;;;;;;1.60;1.15;;;17.50;60.70;;;;;;5063348;28;21128;-63
2024/03/21 12:17:06;;;;;;;1.35;0.93;;;17.70;60.40;;;;;;5070182;28;20056;-64
2024/03/21 12:19:32;;;;;;;3.92;0.80;;;17.90;60.10;;;;;;5079896;28;20084;-63
2024/03/21 12:21:58;;;;;;;1.05;0.47;;;18.00;59.20;;;;;;5070588;28;20064;-63
2024/03/21 12:24:23;;;;;;;1.77;0.70;;;17.90;59.10;;;;;;5075392;28;20126;-66
2024/03/21 12:26:49;;;;;;;2.08;0.77;;;17.90;59.10;;;;;;5082483;28;20530;-66
2024/03/21 12:29:14;;;;;;;3.03;0.65;;;17.80;59.30;;;;;;5083865;28;20556;-66
2024/03/21 12:31:40;;;;;;;1.48;1.23;;;17.80;58.80;;;;;;5066522;28;20877;-66
2024/03/21 12:34:06;;;;;;;0.82;0.70;;;17.60;59.20;;;;;;5074083;28;20047;-66
2024/03/21 12:36:32;;;;;;;3.35;0.60;;;17.30;59.60;;;;;;5075677;28;20064;-66
2024/03/21 12:38:59;;;;;;;2.28;0.60;;;17.10;59.70;;;;;;5073810;28;20037;-66
2024/03/21 12:41:25;;;;;;;0.98;0.65;;;16.90;59.90;;;;;;5075922;28;20102;-66
2024/03/21 12:43:50;;;;;;;1.08;0.68;;;16.80;59.80;;;;;;5078313;28;20056;-66
2024/03/21 12:46:16;;;;;;;0.65;0.65;;;16.70;60.30;;;;;;5085484;28;20032;-63